sensor_id;sensor_type;location;lat;lon;timestamp;P1;durP1;ratioP1;P2;durP2;ratioP2
56267;SDS011;42175;46.930;9.532;2022-11-30T00:00:17;5.60;;;3.60;;
56267;SDS011;42175;46.930;9.532;2022-11-30T00:02:44;4.60;;;3.20;;
56267;SDS011;42175;46.930;9.532;2022-11-30T00:05:11;7.32;;;3.28;;
56267;SDS011;42175;46.930;9.532;2022-11-30T00:07:37;4.22;;;2.70;;
56267;SDS011;42175;46.930;9.532;2022-11-30T00:10:03;5.10;;;3.35;;
56267;SDS011;42175;46.930;9.532;2022-11-30T00:12:30;6.65;;;3.47;;
56267;SDS011;42175;46.930;9.532;2022-11-30T00:14:55;3.75;;;2.78;;
56267;SDS011;42175;46.930;9.532;2022-11-30T00:17:21;5.80;;;3.03;;
56267;SDS011;42175;46.930;9.532;2022-11-30T00:19:47;5.28;;;3.10;;
56267;SDS011;42175;46.930;9.532;2022-11-30T00:22:13;5.35;;;3.08;;
56267;SDS011;42175;46.930;9.532;2022-11-30T00:24:38;4.40;;;2.65;;
56267;SDS011;42175;46.930;9.532;2022-11-30T00:27:04;6.78;;;3.08;;
56267;SDS011;42175;46.930;9.532;2022-11-30T00:29:30;5.10;;;2.90;;
56267;SDS011;42175;46.930;9.532;2022-11-30T00:31:55;4.25;;;2.90;;
56267;SDS011;42175;46.930;9.532;2022-11-30T00:34:21;4.78;;;3.17;;
56267;SDS011;42175;46.930;9.532;2022-11-30T00:36:47;4.88;;;2.92;;
56267;SDS011;42175;46.930;9.532;2022-11-30T00:39:13;4.03;;;2.97;;
56267;SDS011;42175;46.930;9.532;2022-11-30T00:41:38;3.05;;;2.45;;
56267;SDS011;42175;46.930;9.532;2022-11-30T00:44:04;3.25;;;2.28;;
56267;SDS011;42175;46.930;9.532;2022-11-30T00:46:30;4.53;;;2.85;;
56267;SDS011;42175;46.930;9.532;2022-11-30T00:48:55;3.42;;;2.17;;
56267;SDS011;42175;46.930;9.532;2022-11-30T00:51:21;5.07;;;2.80;;
56267;SDS011;42175;46.930;9.532;2022-11-30T00:53:47;3.95;;;2.30;;
56267;SDS011;42175;46.930;9.532;2022-11-30T00:56:12;4.32;;;2.50;;
56267;SDS011;42175;46.930;9.532;2022-11-30T00:58:39;3.55;;;2.42;;
56267;SDS011;42175;46.930;9.532;2022-11-30T01:01:05;6.35;;;3.25;;
56267;SDS011;42175;46.930;9.532;2022-11-30T01:03:31;3.88;;;2.50;;
56267;SDS011;42175;46.930;9.532;2022-11-30T01:06:01;4.95;;;2.92;;
56267;SDS011;42175;46.930;9.532;2022-11-30T01:08:50;3.15;;;2.58;;
56267;SDS011;42175;46.930;9.532;2022-11-30T01:12:26;4.10;;;2.45;;
56267;SDS011;42175;46.930;9.532;2022-11-30T01:15:08;4.45;;;2.65;;
56267;SDS011;42175;46.930;9.532;2022-11-30T01:18:06;8.10;;;2.55;;
56267;SDS011;42175;46.930;9.532;2022-11-30T01:34:17;4.30;;;2.20;;
56267;SDS011;42175;46.930;9.532;2022-11-30T01:36:46;4.40;;;2.67;;
56267;SDS011;42175;46.930;9.532;2022-11-30T01:39:12;4.65;;;2.20;;
56267;SDS011;42175;46.930;9.532;2022-11-30T01:41:38;3.20;;;2.03;;
56267;SDS011;42175;46.930;9.532;2022-11-30T01:51:35;3.17;;;2.00;;
56267;SDS011;42175;46.930;9.532;2022-11-30T01:54:05;4.38;;;2.35;;
56267;SDS011;42175;46.930;9.532;2022-11-30T01:56:34;3.30;;;2.45;;
56267;SDS011;42175;46.930;9.532;2022-11-30T01:59:04;5.57;;;2.55;;
56267;SDS011;42175;46.930;9.532;2022-11-30T02:01:29;4.28;;;2.65;;
56267;SDS011;42175;46.930;9.532;2022-11-30T02:03:59;3.17;;;2.40;;
56267;SDS011;42175;46.930;9.532;2022-11-30T02:06:30;3.10;;;2.15;;
56267;SDS011;42175;46.930;9.532;2022-11-30T02:08:56;3.67;;;2.85;;
56267;SDS011;42175;46.930;9.532;2022-11-30T02:11:22;4.65;;;2.78;;
56267;SDS011;42175;46.930;9.532;2022-11-30T02:16:29;3.65;;;2.58;;
56267;SDS011;42175;46.930;9.532;2022-11-30T02:21:50;3.53;;;2.85;;
56267;SDS011;42175;46.930;9.532;2022-11-30T02:32:31;6.60;;;2.50;;
56267;SDS011;42175;46.930;9.532;2022-11-30T02:35:11;5.07;;;2.47;;
56267;SDS011;42175;46.930;9.532;2022-11-30T02:37:41;3.38;;;2.63;;
56267;SDS011;42175;46.930;9.532;2022-11-30T02:40:15;3.35;;;2.25;;
56267;SDS011;42175;46.930;9.532;2022-11-30T02:42:42;4.72;;;2.33;;
56267;SDS011;42175;46.930;9.532;2022-11-30T02:45:08;4.32;;;2.20;;
56267;SDS011;42175;46.930;9.532;2022-11-30T02:47:36;3.03;;;2.50;;
56267;SDS011;42175;46.930;9.532;2022-11-30T02:50:07;4.28;;;2.70;;
56267;SDS011;42175;46.930;9.532;2022-11-30T02:52:39;3.35;;;2.25;;
56267;SDS011;42175;46.930;9.532;2022-11-30T02:55:06;3.20;;;2.50;;
56267;SDS011;42175;46.930;9.532;2022-11-30T02:57:34;4.97;;;2.28;;
56267;SDS011;42175;46.930;9.532;2022-11-30T03:00:02;4.72;;;2.15;;
56267;SDS011;42175;46.930;9.532;2022-11-30T03:02:31;4.10;;;2.72;;
56267;SDS011;42175;46.930;9.532;2022-11-30T03:04:57;5.28;;;2.42;;
56267;SDS011;42175;46.930;9.532;2022-11-30T03:07:23;3.60;;;2.03;;
56267;SDS011;42175;46.930;9.532;2022-11-30T03:09:49;3.75;;;2.53;;
56267;SDS011;42175;46.930;9.532;2022-11-30T03:12:14;3.60;;;2.50;;
56267;SDS011;42175;46.930;9.532;2022-11-30T03:14:40;3.65;;;2.72;;
56267;SDS011;42175;46.930;9.532;2022-11-30T03:17:06;3.45;;;2.40;;
56267;SDS011;42175;46.930;9.532;2022-11-30T03:19:32;3.03;;;2.50;;
56267;SDS011;42175;46.930;9.532;2022-11-30T03:21:58;2.83;;;2.40;;
56267;SDS011;42175;46.930;9.532;2022-11-30T03:24:24;3.60;;;2.33;;
56267;SDS011;42175;46.930;9.532;2022-11-30T03:26:50;3.75;;;2.35;;
56267;SDS011;42175;46.930;9.532;2022-11-30T03:29:15;2.33;;;2.00;;
56267;SDS011;42175;46.930;9.532;2022-11-30T03:31:41;2.97;;;2.50;;
56267;SDS011;42175;46.930;9.532;2022-11-30T03:34:07;5.40;;;2.35;;
56267;SDS011;42175;46.930;9.532;2022-11-30T03:36:33;3.55;;;3.00;;
56267;SDS011;42175;46.930;9.532;2022-11-30T03:38:58;2.70;;;2.33;;
56267;SDS011;42175;46.930;9.532;2022-11-30T03:41:24;3.33;;;2.40;;
56267;SDS011;42175;46.930;9.532;2022-11-30T03:43:50;3.58;;;2.60;;
56267;SDS011;42175;46.930;9.532;2022-11-30T03:46:16;2.88;;;2.53;;
56267;SDS011;42175;46.930;9.532;2022-11-30T03:48:41;2.90;;;2.30;;
56267;SDS011;42175;46.930;9.532;2022-11-30T03:51:08;4.10;;;2.17;;
56267;SDS011;42175;46.930;9.532;2022-11-30T03:53:34;4.05;;;2.63;;
56267;SDS011;42175;46.930;9.532;2022-11-30T03:56:02;4.82;;;2.00;;
56267;SDS011;42175;46.930;9.532;2022-11-30T03:58:29;3.30;;;2.60;;
56267;SDS011;42175;46.930;9.532;2022-11-30T04:01:02;4.68;;;3.05;;
56267;SDS011;42175;46.930;9.532;2022-11-30T04:03:30;2.97;;;2.38;;
56267;SDS011;42175;46.930;9.532;2022-11-30T04:05:56;2.72;;;2.20;;
56267;SDS011;42175;46.930;9.532;2022-11-30T04:08:23;3.05;;;2.20;;
56267;SDS011;42175;46.930;9.532;2022-11-30T04:10:49;3.45;;;2.40;;
56267;SDS011;42175;46.930;9.532;2022-11-30T04:13:17;3.83;;;2.58;;
56267;SDS011;42175;46.930;9.532;2022-11-30T04:15:47;3.28;;;2.20;;
56267;SDS011;42175;46.930;9.532;2022-11-30T04:18:14;3.97;;;2.33;;
56267;SDS011;42175;46.930;9.532;2022-11-30T04:20:41;4.43;;;2.35;;
56267;SDS011;42175;46.930;9.532;2022-11-30T04:23:07;2.60;;;2.00;;
56267;SDS011;42175;46.930;9.532;2022-11-30T04:25:36;3.20;;;1.95;;
56267;SDS011;42175;46.930;9.532;2022-11-30T04:28:05;4.43;;;2.10;;
56267;SDS011;42175;46.930;9.532;2022-11-30T04:30:32;6.65;;;2.08;;
56267;SDS011;42175;46.930;9.532;2022-11-30T04:32:59;3.88;;;2.88;;
56267;SDS011;42175;46.930;9.532;2022-11-30T04:35:25;3.00;;;2.00;;
56267;SDS011;42175;46.930;9.532;2022-11-30T04:37:51;2.97;;;2.30;;
56267;SDS011;42175;46.930;9.532;2022-11-30T04:40:17;4.50;;;1.92;;
56267;SDS011;42175;46.930;9.532;2022-11-30T04:42:43;3.90;;;2.85;;
56267;SDS011;42175;46.930;9.532;2022-11-30T04:45:09;3.60;;;2.15;;
56267;SDS011;42175;46.930;9.532;2022-11-30T04:47:35;3.83;;;2.35;;
56267;SDS011;42175;46.930;9.532;2022-11-30T04:50:01;2.50;;;2.20;;
56267;SDS011;42175;46.930;9.532;2022-11-30T04:52:27;2.95;;;1.70;;
56267;SDS011;42175;46.930;9.532;2022-11-30T04:54:53;5.93;;;2.00;;
56267;SDS011;42175;46.930;9.532;2022-11-30T04:57:20;2.92;;;1.80;;
56267;SDS011;42175;46.930;9.532;2022-11-30T04:59:46;2.10;;;1.65;;
56267;SDS011;42175;46.930;9.532;2022-11-30T05:02:12;4.93;;;2.08;;
56267;SDS011;42175;46.930;9.532;2022-11-30T05:04:38;3.28;;;1.80;;
56267;SDS011;42175;46.930;9.532;2022-11-30T05:07:03;2.22;;;1.60;;
56267;SDS011;42175;46.930;9.532;2022-11-30T05:09:30;2.05;;;1.60;;
56267;SDS011;42175;46.930;9.532;2022-11-30T05:11:56;8.25;;;2.10;;
56267;SDS011;42175;46.930;9.532;2022-11-30T05:14:22;6.18;;;1.67;;
56267;SDS011;42175;46.930;9.532;2022-11-30T05:16:48;3.25;;;2.00;;
56267;SDS011;42175;46.930;9.532;2022-11-30T05:19:14;4.32;;;1.70;;
56267;SDS011;42175;46.930;9.532;2022-11-30T05:21:40;4.35;;;2.05;;
56267;SDS011;42175;46.930;9.532;2022-11-30T05:24:06;1.88;;;1.50;;
56267;SDS011;42175;46.930;9.532;2022-11-30T05:26:33;2.85;;;1.80;;
56267;SDS011;42175;46.930;9.532;2022-11-30T05:29:00;1.95;;;1.50;;
56267;SDS011;42175;46.930;9.532;2022-11-30T05:31:25;2.70;;;1.85;;
56267;SDS011;42175;46.930;9.532;2022-11-30T05:33:51;2.22;;;1.65;;
56267;SDS011;42175;46.930;9.532;2022-11-30T05:36:17;3.20;;;1.52;;
56267;SDS011;42175;46.930;9.532;2022-11-30T05:38:44;1.67;;;1.50;;
56267;SDS011;42175;46.930;9.532;2022-11-30T05:41:11;2.70;;;1.65;;
56267;SDS011;42175;46.930;9.532;2022-11-30T05:43:37;1.73;;;1.35;;
56267;SDS011;42175;46.930;9.532;2022-11-30T05:46:04;2.33;;;1.73;;
56267;SDS011;42175;46.930;9.532;2022-11-30T05:48:32;3.35;;;2.05;;
56267;SDS011;42175;46.930;9.532;2022-11-30T05:51:05;2.10;;;1.50;;
56267;SDS011;42175;46.930;9.532;2022-11-30T05:53:41;2.13;;;1.70;;
56267;SDS011;42175;46.930;9.532;2022-11-30T05:56:12;4.63;;;1.98;;
56267;SDS011;42175;46.930;9.532;2022-11-30T05:58:39;4.82;;;1.70;;
56267;SDS011;42175;46.930;9.532;2022-11-30T06:01:05;2.72;;;1.88;;
56267;SDS011;42175;46.930;9.532;2022-11-30T06:03:32;11.95;;;3.63;;
56267;SDS011;42175;46.930;9.532;2022-11-30T06:05:59;2.58;;;1.80;;
56267;SDS011;42175;46.930;9.532;2022-11-30T06:08:25;2.50;;;1.67;;
56267;SDS011;42175;46.930;9.532;2022-11-30T06:10:51;2.63;;;1.80;;
56267;SDS011;42175;46.930;9.532;2022-11-30T06:13:17;3.00;;;2.05;;
56267;SDS011;42175;46.930;9.532;2022-11-30T06:15:43;2.63;;;1.65;;
56267;SDS011;42175;46.930;9.532;2022-11-30T06:18:12;4.45;;;2.00;;
56267;SDS011;42175;46.930;9.532;2022-11-30T06:20:38;3.78;;;1.70;;
56267;SDS011;42175;46.930;9.532;2022-11-30T06:23:04;2.63;;;1.75;;
56267;SDS011;42175;46.930;9.532;2022-11-30T06:25:30;3.38;;;1.73;;
56267;SDS011;42175;46.930;9.532;2022-11-30T06:27:56;2.63;;;1.85;;
56267;SDS011;42175;46.930;9.532;2022-11-30T06:30:22;1.98;;;1.55;;
56267;SDS011;42175;46.930;9.532;2022-11-30T06:32:48;2.53;;;1.60;;
56267;SDS011;42175;46.930;9.532;2022-11-30T06:35:15;3.03;;;2.00;;
56267;SDS011;42175;46.930;9.532;2022-11-30T06:37:41;2.17;;;1.60;;
56267;SDS011;42175;46.930;9.532;2022-11-30T06:40:08;2.42;;;1.60;;
56267;SDS011;42175;46.930;9.532;2022-11-30T06:42:36;5.75;;;1.88;;
56267;SDS011;42175;46.930;9.532;2022-11-30T06:45:02;5.93;;;1.70;;
56267;SDS011;42175;46.930;9.532;2022-11-30T06:47:29;4.68;;;1.90;;
56267;SDS011;42175;46.930;9.532;2022-11-30T06:49:55;4.95;;;2.20;;
56267;SDS011;42175;46.930;9.532;2022-11-30T06:52:21;9.20;;;2.58;;
56267;SDS011;42175;46.930;9.532;2022-11-30T06:54:47;8.80;;;2.60;;
56267;SDS011;42175;46.930;9.532;2022-11-30T06:57:13;8.80;;;2.28;;
56267;SDS011;42175;46.930;9.532;2022-11-30T06:59:39;14.63;;;3.97;;
56267;SDS011;42175;46.930;9.532;2022-11-30T07:02:11;8.63;;;2.22;;
56267;SDS011;42175;46.930;9.532;2022-11-30T07:04:38;4.53;;;2.05;;
56267;SDS011;42175;46.930;9.532;2022-11-30T07:07:03;12.63;;;2.40;;
56267;SDS011;42175;46.930;9.532;2022-11-30T07:09:32;12.80;;;2.33;;
56267;SDS011;42175;46.930;9.532;2022-11-30T07:11:58;13.18;;;2.33;;
56267;SDS011;42175;46.930;9.532;2022-11-30T07:14:24;16.58;;;3.13;;
56267;SDS011;42175;46.930;9.532;2022-11-30T07:16:50;11.15;;;2.85;;
56267;SDS011;42175;46.930;9.532;2022-11-30T07:19:16;9.63;;;2.78;;
56267;SDS011;42175;46.930;9.532;2022-11-30T07:21:42;18.27;;;3.00;;
56267;SDS011;42175;46.930;9.532;2022-11-30T07:24:10;22.40;;;12.27;;
56267;SDS011;42175;46.930;9.532;2022-11-30T07:26:54;20.70;;;7.82;;
56267;SDS011;42175;46.930;9.532;2022-11-30T07:29:20;15.45;;;6.22;;
56267;SDS011;42175;46.930;9.532;2022-11-30T07:31:49;16.48;;;5.03;;
56267;SDS011;42175;46.930;9.532;2022-11-30T07:34:16;11.43;;;4.70;;
56267;SDS011;42175;46.930;9.532;2022-11-30T07:36:41;13.27;;;4.97;;
56267;SDS011;42175;46.930;9.532;2022-11-30T07:39:07;11.68;;;4.07;;
56267;SDS011;42175;46.930;9.532;2022-11-30T07:41:33;10.95;;;3.88;;
56267;SDS011;42175;46.930;9.532;2022-11-30T07:43:58;14.52;;;3.95;;
56267;SDS011;42175;46.930;9.532;2022-11-30T07:46:24;10.23;;;3.95;;
56267;SDS011;42175;46.930;9.532;2022-11-30T07:48:50;14.73;;;3.55;;
56267;SDS011;42175;46.930;9.532;2022-11-30T07:51:17;13.85;;;4.53;;
56267;SDS011;42175;46.930;9.532;2022-11-30T07:53:46;9.88;;;2.92;;
56267;SDS011;42175;46.930;9.532;2022-11-30T07:56:14;9.18;;;3.08;;
56267;SDS011;42175;46.930;9.532;2022-11-30T07:58:41;9.40;;;3.85;;
56267;SDS011;42175;46.930;9.532;2022-11-30T08:01:16;10.43;;;3.28;;
56267;SDS011;42175;46.930;9.532;2022-11-30T08:03:45;13.07;;;3.20;;
56267;SDS011;42175;46.930;9.532;2022-11-30T08:06:12;11.88;;;3.03;;
56267;SDS011;42175;46.930;9.532;2022-11-30T08:08:43;17.67;;;4.63;;
56267;SDS011;42175;46.930;9.532;2022-11-30T08:11:11;24.35;;;11.77;;
56267;SDS011;42175;46.930;9.532;2022-11-30T08:13:38;32.17;;;17.10;;
56267;SDS011;42175;46.930;9.532;2022-11-30T08:16:05;36.35;;;15.43;;
56267;SDS011;42175;46.930;9.532;2022-11-30T08:18:36;32.25;;;14.73;;
56267;SDS011;42175;46.930;9.532;2022-11-30T08:21:03;26.35;;;13.95;;
56267;SDS011;42175;46.930;9.532;2022-11-30T08:23:31;26.63;;;11.80;;
56267;SDS011;42175;46.930;9.532;2022-11-30T08:26:02;19.88;;;10.98;;
56267;SDS011;42175;46.930;9.532;2022-11-30T08:28:30;22.05;;;10.18;;
56267;SDS011;42175;46.930;9.532;2022-11-30T08:31:00;54.97;;;15.73;;
56267;SDS011;42175;46.930;9.532;2022-11-30T08:33:28;85.05;;;20.67;;
56267;SDS011;42175;46.930;9.532;2022-11-30T08:36:04;90.03;;;22.02;;
56267;SDS011;42175;46.930;9.532;2022-11-30T08:38:43;88.35;;;21.30;;
56267;SDS011;42175;46.930;9.532;2022-11-30T08:41:11;83.47;;;20.33;;
56267;SDS011;42175;46.930;9.532;2022-11-30T08:43:38;81.40;;;17.88;;
56267;SDS011;42175;46.930;9.532;2022-11-30T08:46:05;76.38;;;19.15;;
56267;SDS011;42175;46.930;9.532;2022-11-30T08:48:33;67.10;;;16.25;;
56267;SDS011;42175;46.930;9.532;2022-11-30T08:51:03;75.18;;;16.95;;
56267;SDS011;42175;46.930;9.532;2022-11-30T08:53:31;70.80;;;15.98;;
56267;SDS011;42175;46.930;9.532;2022-11-30T08:55:58;62.80;;;15.40;;
56267;SDS011;42175;46.930;9.532;2022-11-30T08:58:26;63.83;;;14.73;;
56267;SDS011;42175;46.930;9.532;2022-11-30T09:01:01;68.43;;;15.13;;
56267;SDS011;42175;46.930;9.532;2022-11-30T09:03:32;61.08;;;13.68;;
56267;SDS011;42175;46.930;9.532;2022-11-30T09:06:07;65.88;;;12.43;;
56267;SDS011;42175;46.930;9.532;2022-11-30T09:08:40;50.70;;;12.35;;
56267;SDS011;42175;46.930;9.532;2022-11-30T09:11:11;65.88;;;14.18;;
56267;SDS011;42175;46.930;9.532;2022-11-30T09:13:40;54.97;;;12.13;;
56267;SDS011;42175;46.930;9.532;2022-11-30T09:16:07;58.85;;;12.05;;
56267;SDS011;42175;46.930;9.532;2022-11-30T09:18:33;67.80;;;13.68;;
56267;SDS011;42175;46.930;9.532;2022-11-30T09:21:00;56.00;;;12.15;;
56267;SDS011;42175;46.930;9.532;2022-11-30T09:23:27;58.45;;;12.32;;
56267;SDS011;42175;46.930;9.532;2022-11-30T09:25:54;44.83;;;11.07;;
56267;SDS011;42175;46.930;9.532;2022-11-30T09:28:24;52.45;;;11.70;;
56267;SDS011;42175;46.930;9.532;2022-11-30T09:30:50;43.30;;;11.35;;
56267;SDS011;42175;46.930;9.532;2022-11-30T09:33:17;54.53;;;12.10;;
56267;SDS011;42175;46.930;9.532;2022-11-30T09:35:43;50.17;;;11.10;;
56267;SDS011;42175;46.930;9.532;2022-11-30T09:38:09;48.20;;;9.60;;
56267;SDS011;42175;46.930;9.532;2022-11-30T09:40:35;44.88;;;10.43;;
56267;SDS011;42175;46.930;9.532;2022-11-30T09:43:16;52.88;;;11.38;;
56267;SDS011;42175;46.930;9.532;2022-11-30T09:45:58;47.20;;;10.57;;
56267;SDS011;42175;46.930;9.532;2022-11-30T09:51:52;37.00;;;9.40;;
56267;SDS011;42175;46.930;9.532;2022-11-30T09:54:13;43.22;;;10.27;;
56267;SDS011;42175;46.930;9.532;2022-11-30T09:56:43;46.28;;;9.60;;
56267;SDS011;42175;46.930;9.532;2022-11-30T10:01:48;30.73;;;9.07;;
56267;SDS011;42175;46.930;9.532;2022-11-30T10:04:24;37.92;;;10.23;;
56267;SDS011;42175;46.930;9.532;2022-11-30T10:07:03;43.53;;;9.30;;
56267;SDS011;42175;46.930;9.532;2022-11-30T10:09:46;37.72;;;9.73;;
56267;SDS011;42175;46.930;9.532;2022-11-30T10:12:25;38.53;;;9.23;;
56267;SDS011;42175;46.930;9.532;2022-11-30T10:18:26;38.95;;;9.30;;
56267;SDS011;42175;46.930;9.532;2022-11-30T10:26:20;32.80;;;8.68;;
56267;SDS011;42175;46.930;9.532;2022-11-30T10:28:54;33.67;;;8.27;;
56267;SDS011;42175;46.930;9.532;2022-11-30T10:31:30;32.25;;;8.65;;
56267;SDS011;42175;46.930;9.532;2022-11-30T10:37:00;33.60;;;8.55;;
56267;SDS011;42175;46.930;9.532;2022-11-30T10:39:36;30.40;;;8.35;;
56267;SDS011;42175;46.930;9.532;2022-11-30T10:45:00;33.35;;;8.38;;
56267;SDS011;42175;46.930;9.532;2022-11-30T10:47:33;32.45;;;7.85;;
56267;SDS011;42175;46.930;9.532;2022-11-30T10:50:03;28.55;;;7.45;;
56267;SDS011;42175;46.930;9.532;2022-11-30T10:52:34;25.98;;;6.90;;
56267;SDS011;42175;46.930;9.532;2022-11-30T10:55:16;35.70;;;8.80;;
56267;SDS011;42175;46.930;9.532;2022-11-30T10:57:45;32.00;;;8.98;;
56267;SDS011;42175;46.930;9.532;2022-11-30T11:00:15;24.63;;;7.43;;
56267;SDS011;42175;46.930;9.532;2022-11-30T11:02:48;36.03;;;7.97;;
56267;SDS011;42175;46.930;9.532;2022-11-30T11:08:16;24.52;;;7.43;;
56267;SDS011;42175;46.930;9.532;2022-11-30T11:10:46;21.15;;;7.07;;
56267;SDS011;42175;46.930;9.532;2022-11-30T11:13:20;29.23;;;8.32;;
56267;SDS011;42175;46.930;9.532;2022-11-30T11:16:01;30.30;;;7.35;;
56267;SDS011;42175;46.930;9.532;2022-11-30T11:18:28;28.52;;;8.05;;
56267;SDS011;42175;46.930;9.532;2022-11-30T11:23:37;25.33;;;5.72;;
56267;SDS011;42175;46.930;9.532;2022-11-30T11:26:05;28.58;;;6.88;;
56267;SDS011;42175;46.930;9.532;2022-11-30T11:28:35;28.88;;;7.40;;
56267;SDS011;42175;46.930;9.532;2022-11-30T11:31:14;22.45;;;6.20;;
56267;SDS011;42175;46.930;9.532;2022-11-30T11:33:57;19.15;;;5.53;;
56267;SDS011;42175;46.930;9.532;2022-11-30T11:36:24;29.83;;;6.70;;
56267;SDS011;42175;46.930;9.532;2022-11-30T11:38:52;25.38;;;6.30;;
56267;SDS011;42175;46.930;9.532;2022-11-30T11:41:20;24.55;;;6.93;;
56267;SDS011;42175;46.930;9.532;2022-11-30T11:46:25;20.95;;;6.13;;
56267;SDS011;42175;46.930;9.532;2022-11-30T11:48:58;25.50;;;6.72;;
56267;SDS011;42175;46.930;9.532;2022-11-30T11:51:41;19.58;;;5.00;;
56267;SDS011;42175;46.930;9.532;2022-11-30T11:56:57;21.90;;;5.85;;
56267;SDS011;42175;46.930;9.532;2022-11-30T12:07:58;18.25;;;5.68;;
56267;SDS011;42175;46.930;9.532;2022-11-30T12:10:55;21.63;;;5.10;;
56267;SDS011;42175;46.930;9.532;2022-11-30T12:13:31;17.27;;;5.53;;
56267;SDS011;42175;46.930;9.532;2022-11-30T12:18:49;20.08;;;5.68;;
56267;SDS011;42175;46.930;9.532;2022-11-30T12:24:46;19.27;;;5.47;;
56267;SDS011;42175;46.930;9.532;2022-11-30T12:30:02;15.82;;;5.80;;
56267;SDS011;42175;46.930;9.532;2022-11-30T12:38:41;18.55;;;5.22;;
56267;SDS011;42175;46.930;9.532;2022-11-30T12:46:45;16.95;;;5.15;;
56267;SDS011;42175;46.930;9.532;2022-11-30T12:55:41;13.10;;;9.85;;
56267;SDS011;42175;46.930;9.532;2022-11-30T12:58:29;14.63;;;8.63;;
56267;SDS011;42175;46.930;9.532;2022-11-30T13:06:23;19.17;;;6.18;;
56267;SDS011;42175;46.930;9.532;2022-11-30T13:09:09;13.20;;;4.85;;
56267;SDS011;42175;46.930;9.532;2022-11-30T13:12:12;16.13;;;4.80;;
56267;SDS011;42175;46.930;9.532;2022-11-30T13:14:46;14.50;;;3.60;;
56267;SDS011;42175;46.930;9.532;2022-11-30T13:17:17;17.35;;;4.30;;
56267;SDS011;42175;46.930;9.532;2022-11-30T13:22:16;16.95;;;4.93;;
56267;SDS011;42175;46.930;9.532;2022-11-30T13:41:38;14.85;;;3.67;;
56267;SDS011;42175;46.930;9.532;2022-11-30T13:47:02;15.23;;;3.78;;
56267;SDS011;42175;46.930;9.532;2022-11-30T13:49:52;10.80;;;3.50;;
56267;SDS011;42175;46.930;9.532;2022-11-30T14:05:46;15.27;;;3.47;;
56267;SDS011;42175;46.930;9.532;2022-11-30T14:08:28;14.23;;;3.70;;
56267;SDS011;42175;46.930;9.532;2022-11-30T14:20:07;9.13;;;3.08;;
56267;SDS011;42175;46.930;9.532;2022-11-30T14:22:40;9.43;;;3.15;;
56267;SDS011;42175;46.930;9.532;2022-11-30T14:25:11;15.68;;;3.28;;
56267;SDS011;42175;46.930;9.532;2022-11-30T14:27:41;10.35;;;3.28;;
56267;SDS011;42175;46.930;9.532;2022-11-30T14:30:18;8.13;;;3.42;;
56267;SDS011;42175;46.930;9.532;2022-11-30T14:32:48;9.13;;;3.17;;
56267;SDS011;42175;46.930;9.532;2022-11-30T14:35:26;8.15;;;3.28;;
56267;SDS011;42175;46.930;9.532;2022-11-30T14:37:55;8.55;;;3.22;;
56267;SDS011;42175;46.930;9.532;2022-11-30T14:40:23;8.88;;;3.35;;
56267;SDS011;42175;46.930;9.532;2022-11-30T14:42:52;10.40;;;2.85;;
56267;SDS011;42175;46.930;9.532;2022-11-30T14:45:20;13.02;;;3.22;;
56267;SDS011;42175;46.930;9.532;2022-11-30T14:47:53;10.18;;;2.75;;
56267;SDS011;42175;46.930;9.532;2022-11-30T14:50:51;11.50;;;4.28;;
56267;SDS011;42175;46.930;9.532;2022-11-30T14:58:49;12.73;;;4.07;;
56267;SDS011;42175;46.930;9.532;2022-11-30T15:01:21;8.50;;;3.40;;
56267;SDS011;42175;46.930;9.532;2022-11-30T15:03:49;15.35;;;3.50;;
56267;SDS011;42175;46.930;9.532;2022-11-30T15:06:17;7.65;;;2.67;;
56267;SDS011;42175;46.930;9.532;2022-11-30T15:08:47;13.00;;;3.35;;
56267;SDS011;42175;46.930;9.532;2022-11-30T15:11:20;13.40;;;3.15;;
56267;SDS011;42175;46.930;9.532;2022-11-30T15:13:51;16.08;;;2.60;;
56267;SDS011;42175;46.930;9.532;2022-11-30T15:16:21;7.05;;;2.85;;
56267;SDS011;42175;46.930;9.532;2022-11-30T15:18:54;11.38;;;3.20;;
56267;SDS011;42175;46.930;9.532;2022-11-30T15:21:29;11.90;;;3.33;;
56267;SDS011;42175;46.930;9.532;2022-11-30T15:23:57;8.52;;;2.95;;
56267;SDS011;42175;46.930;9.532;2022-11-30T15:31:27;8.77;;;2.83;;
56267;SDS011;42175;46.930;9.532;2022-11-30T15:33:58;9.20;;;3.20;;
56267;SDS011;42175;46.930;9.532;2022-11-30T15:36:24;6.50;;;2.45;;
56267;SDS011;42175;46.930;9.532;2022-11-30T15:38:51;6.90;;;2.75;;
56267;SDS011;42175;46.930;9.532;2022-11-30T15:41:21;8.63;;;3.15;;
56267;SDS011;42175;46.930;9.532;2022-11-30T15:43:54;10.73;;;2.95;;
56267;SDS011;42175;46.930;9.532;2022-11-30T15:46:27;7.60;;;3.13;;
56267;SDS011;42175;46.930;9.532;2022-11-30T15:51:40;9.80;;;3.50;;
56267;SDS011;42175;46.930;9.532;2022-11-30T15:54:06;6.25;;;2.70;;
56267;SDS011;42175;46.930;9.532;2022-11-30T15:56:32;10.18;;;2.35;;
56267;SDS011;42175;46.930;9.532;2022-11-30T15:59:03;13.05;;;3.03;;
56267;SDS011;42175;46.930;9.532;2022-11-30T16:01:53;8.43;;;2.90;;
56267;SDS011;42175;46.930;9.532;2022-11-30T16:07:37;7.05;;;2.53;;
56267;SDS011;42175;46.930;9.532;2022-11-30T16:10:25;9.05;;;2.85;;
56267;SDS011;42175;46.930;9.532;2022-11-30T16:12:54;14.90;;;3.47;;
56267;SDS011;42175;46.930;9.532;2022-11-30T16:15:22;7.10;;;2.58;;
56267;SDS011;42175;46.930;9.532;2022-11-30T16:17:49;7.45;;;3.13;;
56267;SDS011;42175;46.930;9.532;2022-11-30T16:20:17;9.45;;;2.85;;
56267;SDS011;42175;46.930;9.532;2022-11-30T16:22:45;8.23;;;2.83;;
56267;SDS011;42175;46.930;9.532;2022-11-30T16:25:15;8.02;;;2.55;;
56267;SDS011;42175;46.930;9.532;2022-11-30T16:27:44;9.63;;;2.60;;
56267;SDS011;42175;46.930;9.532;2022-11-30T16:30:18;5.88;;;2.80;;
56267;SDS011;42175;46.930;9.532;2022-11-30T16:32:46;8.77;;;3.35;;
56267;SDS011;42175;46.930;9.532;2022-11-30T16:37:41;12.00;;;3.35;;
56267;SDS011;42175;46.930;9.532;2022-11-30T16:40:06;7.13;;;3.03;;
56267;SDS011;42175;46.930;9.532;2022-11-30T16:42:32;10.48;;;3.10;;
56267;SDS011;42175;46.930;9.532;2022-11-30T16:44:58;6.13;;;2.10;;
56267;SDS011;42175;46.930;9.532;2022-11-30T16:47:24;6.68;;;2.50;;
56267;SDS011;42175;46.930;9.532;2022-11-30T16:49:49;7.75;;;2.65;;
56267;SDS011;42175;46.930;9.532;2022-11-30T16:52:15;10.60;;;3.20;;
56267;SDS011;42175;46.930;9.532;2022-11-30T16:54:41;4.78;;;2.13;;
56267;SDS011;42175;46.930;9.532;2022-11-30T16:57:07;6.15;;;2.83;;
56267;SDS011;42175;46.930;9.532;2022-11-30T16:59:32;6.68;;;2.65;;
56267;SDS011;42175;46.930;9.532;2022-11-30T17:01:58;8.20;;;2.63;;
56267;SDS011;42175;46.930;9.532;2022-11-30T17:04:24;6.20;;;2.30;;
56267;SDS011;42175;46.930;9.532;2022-11-30T17:06:53;8.55;;;2.78;;
56267;SDS011;42175;46.930;9.532;2022-11-30T17:09:20;7.55;;;2.88;;
56267;SDS011;42175;46.930;9.532;2022-11-30T17:11:46;15.18;;;8.75;;
56267;SDS011;42175;46.930;9.532;2022-11-30T17:14:16;17.27;;;11.70;;
56267;SDS011;42175;46.930;9.532;2022-11-30T17:16:46;15.00;;;11.52;;
56267;SDS011;42175;46.930;9.532;2022-11-30T17:19:11;26.25;;;19.65;;
56267;SDS011;42175;46.930;9.532;2022-11-30T17:21:37;21.25;;;15.40;;
56267;SDS011;42175;46.930;9.532;2022-11-30T17:24:04;19.08;;;15.30;;
56267;SDS011;42175;46.930;9.532;2022-11-30T17:26:31;20.98;;;15.50;;
56267;SDS011;42175;46.930;9.532;2022-11-30T17:28:57;23.38;;;20.05;;
56267;SDS011;42175;46.930;9.532;2022-11-30T17:31:22;22.85;;;20.27;;
56267;SDS011;42175;46.930;9.532;2022-11-30T17:33:48;25.35;;;18.98;;
56267;SDS011;42175;46.930;9.532;2022-11-30T17:36:14;20.33;;;15.55;;
56267;SDS011;42175;46.930;9.532;2022-11-30T17:38:42;23.85;;;17.05;;
56267;SDS011;42175;46.930;9.532;2022-11-30T17:41:13;29.38;;;21.00;;
56267;SDS011;42175;46.930;9.532;2022-11-30T17:43:40;27.75;;;20.08;;